Stations météo

Publicité
Kinbrace, Grande-Bretagne (99016): Température de l'air & dewpoint: 16.08.2018 00:00:00 - 22.08.2018 00:00:00 (BST)Kinbrace, Grande-Bretagne (99016): Vitesse du vent & gusts: 16.08.2018 00:00:00 - 22.08.2018 00:00:00 (BST)Kinbrace, Grande-Bretagne (99016): Direction du vent: 16.08.2018 00:00:00 - 22.08.2018 00:00:00 (BST)Kinbrace, Grande-Bretagne (99016): Quantités de précipitations: 16.08.2018 00:00:00 - 22.08.2018 00:00:00 (BST)
Date & Time tt [°C] td [°C] ff [km/h] ff [knt] fx [km/h] fx [knt] dd rr [mm]
22.08.2018 00:00:00 15,8 14,3 5 3 - - SSW 0,0
21.08.2018 23:00:00 15,8 13,9 9 5 - - S 0,0
21.08.2018 22:00:00 16,9 13,3 18 10 - - S 0,0
21.08.2018 21:00:00 17,0 13,1 22 12 46 25 S 0,0
21.08.2018 20:00:00 17,5 13,1 29 16 - - SSE 0,0
21.08.2018 19:00:00 17,7 13,1 24 13 52 28 S 0,0
21.08.2018 18:00:00 18,7 13,2 34 18 48 26 S 0,0
21.08.2018 17:00:00 19,7 13,3 28 15 - - S 0,0
21.08.2018 16:00:00 18,8 13,2 29 16 - - SSE 0,0
21.08.2018 15:00:00 17,6 12,9 21 11 - - SE 0,0
21.08.2018 14:00:00 17,0 12,2 22 12 - - SSE 0,0
21.08.2018 13:00:00 16,5 11,9 18 10 - - SE 0,0
21.08.2018 12:00:00 15,9 11,9 18 10 - - SE 0,0
21.08.2018 11:00:00 15,0 11,9 16 9 - - SSE 0,0
21.08.2018 10:00:00 15,0 11,9 16 9 - - SE 0,0
21.08.2018 09:00:00 14,0 11,6 15 8 - - SE 0,0
21.08.2018 08:00:00 13,1 11,4 21 11 - - SE 0,0
21.08.2018 07:00:00 12,6 10,9 18 10 - - SE 0,0
21.08.2018 06:00:00 11,5 10,0 11 6 - - ESE 0,0
21.08.2018 05:00:00 10,8 9,8 16 9 - - SE 0,0
21.08.2018 04:00:00 8,2 6,7 5 3 - - S 0,0
21.08.2018 03:00:00 8,4 6,8 4 2 - - W 0,0
21.08.2018 02:00:00 10,9 8,6 13 7 - - SE 0,0
21.08.2018 01:00:00 11,8 8,6 15 8 - - SE 0,0
21.08.2018 00:00:00 11,7 8,9 5 3 - - ESE 0,0
20.08.2018 23:00:00 11,8 9,4 5 3 - - E 0,0
20.08.2018 22:00:00 12,1 9,4 5 3 - - ESE 0,0
20.08.2018 21:00:00 12,4 8,9 5 3 - - SSE 0,0
20.08.2018 20:00:00 13,1 8,8 4 2 - - NE 0,0
20.08.2018 19:00:00 13,4 8,6 9 5 - - N 0,0
20.08.2018 18:00:00 14,0 8,6 9 5 - - NE 0,0
20.08.2018 17:00:00 14,4 9,1 9 5 - - NNE 0,0
20.08.2018 16:00:00 14,8 9,1 8 4 - - N 0,0
20.08.2018 15:00:00 14,9 8,2 11 6 - - NW 0,0
20.08.2018 14:00:00 13,7 9,0 11 6 - - NNW 0,0
20.08.2018 13:00:00 14,7 8,9 4 2 - - NNE 0,0
20.08.2018 12:00:00 13,9 8,1 5 3 - - WNW 0,0
20.08.2018 11:00:00 13,7 8,4 5 3 - - NW 0,0
20.08.2018 10:00:00 13,5 8,9 9 5 - - WNW 0,0
20.08.2018 09:00:00 12,1 9,5 2 1 - - ENE 0,0
20.08.2018 08:00:00 10,7 9,8 2 1 - - SSW 0,0
20.08.2018 07:00:00 9,6 9,1 2 1 - - N 0,0
20.08.2018 06:00:00 9,2 8,5 2 1 - - ESE 0,0
20.08.2018 05:00:00 9,1 8,3 4 2 - - ESE 0,0
20.08.2018 04:00:00 9,9 8,9 2 1 - - SSW 0,0
20.08.2018 03:00:00 10,5 9,2 2 1 - - E 0,0
20.08.2018 02:00:00 10,8 9,5 2 1 - - SSE 0,0
20.08.2018 01:00:00 10,7 9,4 4 2 - - N 0,0
20.08.2018 00:00:00 10,8 9,2 5 3 - - NNW 0,0
19.08.2018 23:00:00 11,1 9,1 8 4 - - NW 0,0
19.08.2018 22:00:00 11,6 9,3 4 2 - - WNW 0,0
19.08.2018 21:00:00 11,6 8,6 5 3 - - N 0,0
19.08.2018 20:00:00 13,8 8,8 11 6 - - N 0,0
19.08.2018 19:00:00 14,9 8,9 16 9 - - N 0,0
19.08.2018 18:00:00 16,7 9,4 15 8 - - N 0,0
19.08.2018 17:00:00 16,2 9,5 21 11 - - N 0,0
19.08.2018 16:00:00 18,2 10,8 18 10 - - N 0,0
19.08.2018 15:00:00 16,9 9,1 11 6 - - NNW 0,0
19.08.2018 14:00:00 16,7 8,8 4 2 - - W 0,0
19.08.2018 13:00:00 15,2 9,1 13 7 - - NNW 0,0
19.08.2018 12:00:00 15,3 8,9 9 5 - - N 0,0
19.08.2018 11:00:00 15,3 11,1 8 4 - - N 0,0
19.08.2018 10:00:00 13,7 10,1 8 4 - - N 0,0
19.08.2018 09:00:00 11,6 10,0 2 1 - - NNW 0,0
19.08.2018 08:00:00 9,5 8,7 2 1 - - SSE 0,0
19.08.2018 07:00:00 8,1 7,6 4 2 - - ESE 0,0
19.08.2018 06:00:00 8,2 6,7 2 1 - - E 0,0
19.08.2018 05:00:00 10,3 8,3 2 1 - - SW 0,0
19.08.2018 04:00:00 11,1 8,7 5 3 - - ESE 0,0
19.08.2018 03:00:00 11,3 8,6 5 3 - - ESE 0,0
19.08.2018 02:00:00 11,4 8,6 9 5 - - WSW 0,0
19.08.2018 01:00:00 11,2 8,3 5 3 - - SSW 0,0
19.08.2018 00:00:00 10,7 7,8 8 4 - - SW 0,0
18.08.2018 23:00:00 11,3 8,1 16 9 - - W 0,0
18.08.2018 22:00:00 10,4 7,7 15 8 - - W 0,0
18.08.2018 21:00:00 11,7 8,6 18 10 - - WSW 0,0
18.08.2018 20:00:00 12,5 8,3 22 12 - - WSW 0,0
18.08.2018 19:00:00 13,7 8,3 16 9 - - WSW 0,0
18.08.2018 18:00:00 14,2 7,5 15 8 46 25 WSW 0,0
18.08.2018 17:00:00 14,6 7,2 22 12 48 26 W 0,0
18.08.2018 16:00:00 15,2 7,6 26 14 46 25 W 0,0
18.08.2018 15:00:00 17,0 8,2 26 14 50 27 W 0,0
18.08.2018 14:00:00 15,0 7,6 29 16 57 31 W 0,0
18.08.2018 13:00:00 15,1 8,5 37 20 59 32 W 0,0
18.08.2018 12:00:00 13,9 8,6 29 16 50 27 W 0,0
18.08.2018 11:00:00 14,2 7,4 34 18 61 33 W 0,0
18.08.2018 10:00:00 14,2 8,2 26 14 46 25 W 0,0
18.08.2018 09:00:00 13,2 8,9 29 16 46 25 WSW 0,0
18.08.2018 08:00:00 13,3 9,0 26 14 50 27 W 0,0
18.08.2018 07:00:00 13,2 8,6 34 18 54 29 WSW 0,0
18.08.2018 06:00:00 13,1 8,9 22 12 - - W 0,0
18.08.2018 05:00:00 12,9 8,6 29 16 48 26 W 0,0
18.08.2018 04:00:00 12,8 8,6 16 9 - - W 0,0
18.08.2018 03:00:00 13,0 8,3 13 7 - - W 0,0
18.08.2018 02:00:00 12,7 8,3 31 17 - - W 0,0
18.08.2018 01:00:00 13,0 7,7 8 4 - - WNW 0,0
18.08.2018 00:00:00 13,3 8,1 24 13 - - W 0,0
17.08.2018 23:00:00 13,4 8,6 9 5 - - WNW 0,0
17.08.2018 22:00:00 13,9 8,7 5 3 - - E 0,0
17.08.2018 21:00:00 14,5 9,4 8 4 - - WNW 0,0
17.08.2018 20:00:00 15,0 11,7 18 10 - - W 0,0
17.08.2018 19:00:00 15,1 12,8 18 10 - - W 0,0
17.08.2018 18:00:00 16,5 11,9 22 12 - - SW 0,0
17.08.2018 17:00:00 15,7 11,0 16 9 - - S 0,0
17.08.2018 16:00:00 15,4 11,0 22 12 - - S 0,0
17.08.2018 15:00:00 15,2 10,5 24 13 - - SSW 0,0
17.08.2018 14:00:00 15,0 10,6 26 14 - - S 0,0
17.08.2018 13:00:00 14,4 9,9 21 11 - - S 0,0
17.08.2018 12:00:00 13,8 9,4 18 10 - - S 0,0
17.08.2018 11:00:00 13,7 9,3 21 11 - - S 0,0
17.08.2018 10:00:00 12,9 9,0 18 10 - - S 0,0
17.08.2018 09:00:00 11,6 8,4 15 8 - - WSW 0,0
17.08.2018 08:00:00 11,6 8,0 18 10 - - WSW 0,0
17.08.2018 07:00:00 10,5 8,9 13 7 - - SSW 0,0
17.08.2018 06:00:00 9,6 8,2 11 6 - - SSW 0,0
17.08.2018 05:00:00 10,0 8,4 5 3 - - SW 0,0
17.08.2018 04:00:00 10,6 8,7 16 9 - - WSW 0,0
17.08.2018 03:00:00 10,9 8,8 9 5 - - SSW 0,0
17.08.2018 02:00:00 10,6 8,8 4 2 - - S 0,0
17.08.2018 01:00:00 11,0 9,3 11 6 - - SW 0,0
17.08.2018 00:00:00 11,2 9,5 11 6 - - SW 0,0
16.08.2018 23:00:00 11,4 9,8 13 7 - - SW 0,2
16.08.2018 22:00:00 11,7 10,2 5 3 - - S 0,2
16.08.2018 21:00:00 12,3 9,5 13 7 - - WSW 0,0
16.08.2018 20:00:00 12,7 9,6 18 10 - - WSW 0,0
16.08.2018 19:00:00 14,1 9,0 22 12 - - W -
16.08.2018 18:00:00 14,5 8,6 28 15 46 25 W 0,0
16.08.2018 17:00:00 16,5 8,8 22 12 - - W 0,0
16.08.2018 16:00:00 16,7 9,6 24 13 - - WSW 0,0
16.08.2018 15:00:00 17,0 9,8 28 15 - - W 0,0
16.08.2018 14:00:00 15,9 7,3 31 17 46 25 W 0,0
16.08.2018 13:00:00 14,9 8,2 21 11 - - WSW 0,0
16.08.2018 12:00:00 15,8 8,9 18 10 - - SW 0,0
16.08.2018 11:00:00 14,0 9,5 22 12 - - SSW 0,0
16.08.2018 10:00:00 13,8 9,4 21 11 - - S 0,0
16.08.2018 09:00:00 13,1 8,9 13 7 - - S 0,0
16.08.2018 08:00:00 12,3 8,9 15 8 - - S 0,0
16.08.2018 07:00:00 10,7 8,5 11 6 - - S 0,0
16.08.2018 06:00:00 8,0 7,1 5 3 - - ESE 0,0
16.08.2018 05:00:00 6,6 5,8 9 5 - - E 0,0
16.08.2018 04:00:00 5,3 4,8 4 2 - - ESE 0,0
16.08.2018 03:00:00 5,4 4,3 5 3 - - NNE 0,0
16.08.2018 02:00:00 6,8 6,0 9 5 - - E 0,0
16.08.2018 01:00:00 8,2 6,3 4 2 - - SSW 0,0
16.08.2018 00:00:00 10,7 7,8 8 4 - - SSE 0,0

tt = Température de l'air
td = dewpoint
ff = Vitesse du vent
fx = gusts
dd = Direction du vent
rr = Quantités de précipitations

stations d'obs. à proximité